sensor_id;sensor_type;location;lat;lon;timestamp;P1;durP1;ratioP1;P2;durP2;ratioP2
11486;SDS011;10510;47.942;9.442;2022-10-13T00:00:40;29.98;;;15.02;;
11486;SDS011;10510;47.942;9.442;2022-10-13T00:02:41;27.00;;;15.75;;
11486;SDS011;10510;47.942;9.442;2022-10-13T00:04:41;28.23;;;15.00;;
11486;SDS011;10510;47.942;9.442;2022-10-13T00:06:41;32.45;;;17.27;;
11486;SDS011;10510;47.942;9.442;2022-10-13T00:08:42;26.50;;;15.40;;
11486;SDS011;10510;47.942;9.442;2022-10-13T00:10:42;26.90;;;15.30;;
11486;SDS011;10510;47.942;9.442;2022-10-13T00:12:42;33.97;;;16.90;;
11486;SDS011;10510;47.942;9.442;2022-10-13T00:14:42;35.05;;;15.38;;
11486;SDS011;10510;47.942;9.442;2022-10-13T00:16:43;31.50;;;16.60;;
11486;SDS011;10510;47.942;9.442;2022-10-13T00:18:43;24.55;;;15.15;;
11486;SDS011;10510;47.942;9.442;2022-10-13T00:20:46;32.45;;;14.82;;
11486;SDS011;10510;47.942;9.442;2022-10-13T00:22:47;30.40;;;14.55;;
11486;SDS011;10510;47.942;9.442;2022-10-13T00:24:51;36.33;;;16.25;;
11486;SDS011;10510;47.942;9.442;2022-10-13T00:26:52;31.38;;;15.30;;
11486;SDS011;10510;47.942;9.442;2022-10-13T00:28:53;32.10;;;15.80;;
11486;SDS011;10510;47.942;9.442;2022-10-13T00:30:53;29.00;;;15.82;;
11486;SDS011;10510;47.942;9.442;2022-10-13T00:32:54;32.15;;;16.63;;
11486;SDS011;10510;47.942;9.442;2022-10-13T00:34:54;33.00;;;15.50;;
11486;SDS011;10510;47.942;9.442;2022-10-13T00:36:56;28.45;;;16.25;;
11486;SDS011;10510;47.942;9.442;2022-10-13T00:38:56;27.88;;;16.10;;
11486;SDS011;10510;47.942;9.442;2022-10-13T00:40:57;28.40;;;16.42;;
11486;SDS011;10510;47.942;9.442;2022-10-13T00:42:57;31.50;;;15.18;;
11486;SDS011;10510;47.942;9.442;2022-10-13T00:46:58;31.42;;;15.80;;
11486;SDS011;10510;47.942;9.442;2022-10-13T00:48:59;28.52;;;15.50;;
11486;SDS011;10510;47.942;9.442;2022-10-13T00:51:03;34.47;;;16.35;;
11486;SDS011;10510;47.942;9.442;2022-10-13T00:53:04;29.33;;;15.98;;
11486;SDS011;10510;47.942;9.442;2022-10-13T00:55:06;25.10;;;15.90;;
11486;SDS011;10510;47.942;9.442;2022-10-13T00:57:08;27.13;;;14.88;;
11486;SDS011;10510;47.942;9.442;2022-10-13T00:59:13;31.60;;;16.05;;
11486;SDS011;10510;47.942;9.442;2022-10-13T01:01:21;24.35;;;15.65;;
11486;SDS011;10510;47.942;9.442;2022-10-13T01:03:22;30.42;;;16.25;;
11486;SDS011;10510;47.942;9.442;2022-10-13T01:05:23;32.63;;;16.08;;
11486;SDS011;10510;47.942;9.442;2022-10-13T01:07:24;31.65;;;15.98;;
11486;SDS011;10510;47.942;9.442;2022-10-13T01:09:25;34.42;;;17.63;;
11486;SDS011;10510;47.942;9.442;2022-10-13T01:11:29;32.03;;;15.93;;
11486;SDS011;10510;47.942;9.442;2022-10-13T01:15:50;28.92;;;15.43;;
11486;SDS011;10510;47.942;9.442;2022-10-13T01:18:45;36.67;;;17.45;;
11486;SDS011;10510;47.942;9.442;2022-10-13T01:21:05;39.47;;;16.23;;
11486;SDS011;10510;47.942;9.442;2022-10-13T01:30:23;26.70;;;15.90;;
11486;SDS011;10510;47.942;9.442;2022-10-13T01:32:27;29.40;;;17.05;;
11486;SDS011;10510;47.942;9.442;2022-10-13T01:34:32;35.60;;;16.08;;
11486;SDS011;10510;47.942;9.442;2022-10-13T01:41:23;24.67;;;15.90;;
11486;SDS011;10510;47.942;9.442;2022-10-13T01:43:30;29.88;;;15.45;;
11486;SDS011;10510;47.942;9.442;2022-10-13T01:45:37;33.25;;;17.65;;
11486;SDS011;10510;47.942;9.442;2022-10-13T01:47:43;31.30;;;17.52;;
11486;SDS011;10510;47.942;9.442;2022-10-13T01:49:45;31.17;;;17.48;;
11486;SDS011;10510;47.942;9.442;2022-10-13T01:51:49;31.35;;;17.25;;
11486;SDS011;10510;47.942;9.442;2022-10-13T01:53:50;36.95;;;18.63;;
11486;SDS011;10510;47.942;9.442;2022-10-13T01:55:51;31.35;;;16.95;;
11486;SDS011;10510;47.942;9.442;2022-10-13T01:57:54;31.17;;;17.02;;
11486;SDS011;10510;47.942;9.442;2022-10-13T01:59:55;35.88;;;18.13;;
11486;SDS011;10510;47.942;9.442;2022-10-13T02:02:11;34.83;;;17.70;;
11486;SDS011;10510;47.942;9.442;2022-10-13T02:04:33;32.17;;;18.42;;
11486;SDS011;10510;47.942;9.442;2022-10-13T02:07:05;31.98;;;17.10;;
11486;SDS011;10510;47.942;9.442;2022-10-13T02:09:26;33.33;;;17.60;;
11486;SDS011;10510;47.942;9.442;2022-10-13T02:11:31;33.25;;;18.33;;
11486;SDS011;10510;47.942;9.442;2022-10-13T02:13:32;30.80;;;17.55;;
11486;SDS011;10510;47.942;9.442;2022-10-13T02:17:46;31.42;;;17.73;;
11486;SDS011;10510;47.942;9.442;2022-10-13T02:19:47;33.25;;;16.95;;
11486;SDS011;10510;47.942;9.442;2022-10-13T02:21:47;28.90;;;17.50;;
11486;SDS011;10510;47.942;9.442;2022-10-13T02:23:48;30.92;;;17.05;;
11486;SDS011;10510;47.942;9.442;2022-10-13T02:25:48;28.20;;;18.02;;
11486;SDS011;10510;47.942;9.442;2022-10-13T02:27:50;31.48;;;17.67;;
11486;SDS011;10510;47.942;9.442;2022-10-13T02:29:53;31.52;;;16.48;;
11486;SDS011;10510;47.942;9.442;2022-10-13T02:31:55;34.10;;;18.77;;
11486;SDS011;10510;47.942;9.442;2022-10-13T02:33:55;39.60;;;21.95;;
11486;SDS011;10510;47.942;9.442;2022-10-13T02:35:56;31.67;;;17.55;;
11486;SDS011;10510;47.942;9.442;2022-10-13T02:37:56;33.17;;;17.67;;
11486;SDS011;10510;47.942;9.442;2022-10-13T02:39:56;35.15;;;17.67;;
11486;SDS011;10510;47.942;9.442;2022-10-13T02:41:56;35.17;;;19.63;;
11486;SDS011;10510;47.942;9.442;2022-10-13T02:43:57;30.38;;;18.42;;
11486;SDS011;10510;47.942;9.442;2022-10-13T02:45:57;32.90;;;18.85;;
11486;SDS011;10510;47.942;9.442;2022-10-13T02:47:58;38.33;;;18.77;;
11486;SDS011;10510;47.942;9.442;2022-10-13T02:49:58;34.15;;;18.27;;
11486;SDS011;10510;47.942;9.442;2022-10-13T02:51:58;38.65;;;18.70;;
11486;SDS011;10510;47.942;9.442;2022-10-13T02:53:59;34.42;;;18.10;;
11486;SDS011;10510;47.942;9.442;2022-10-13T02:56:00;35.45;;;19.20;;
11486;SDS011;10510;47.942;9.442;2022-10-13T02:58:01;35.65;;;19.60;;
11486;SDS011;10510;47.942;9.442;2022-10-13T03:00:02;31.65;;;18.33;;
11486;SDS011;10510;47.942;9.442;2022-10-13T03:02:04;35.35;;;20.67;;
11486;SDS011;10510;47.942;9.442;2022-10-13T03:04:04;38.50;;;19.48;;
11486;SDS011;10510;47.942;9.442;2022-10-13T03:06:05;35.75;;;19.50;;
11486;SDS011;10510;47.942;9.442;2022-10-13T03:08:06;40.25;;;18.88;;
11486;SDS011;10510;47.942;9.442;2022-10-13T03:10:07;33.20;;;18.65;;
11486;SDS011;10510;47.942;9.442;2022-10-13T03:12:07;37.88;;;20.20;;
11486;SDS011;10510;47.942;9.442;2022-10-13T03:14:07;37.00;;;18.65;;
11486;SDS011;10510;47.942;9.442;2022-10-13T03:16:08;41.40;;;19.02;;
11486;SDS011;10510;47.942;9.442;2022-10-13T03:18:08;34.53;;;18.98;;
11486;SDS011;10510;47.942;9.442;2022-10-13T03:20:08;33.95;;;18.85;;
11486;SDS011;10510;47.942;9.442;2022-10-13T03:22:09;35.88;;;18.23;;
11486;SDS011;10510;47.942;9.442;2022-10-13T03:24:13;38.03;;;18.27;;
11486;SDS011;10510;47.942;9.442;2022-10-13T03:26:13;36.60;;;17.95;;
11486;SDS011;10510;47.942;9.442;2022-10-13T03:28:14;33.00;;;17.58;;
11486;SDS011;10510;47.942;9.442;2022-10-13T03:30:15;36.05;;;17.95;;
11486;SDS011;10510;47.942;9.442;2022-10-13T03:32:15;36.13;;;18.02;;
11486;SDS011;10510;47.942;9.442;2022-10-13T03:34:16;40.47;;;20.20;;
11486;SDS011;10510;47.942;9.442;2022-10-13T03:36:16;34.88;;;18.17;;
11486;SDS011;10510;47.942;9.442;2022-10-13T03:38:17;35.17;;;18.05;;
11486;SDS011;10510;47.942;9.442;2022-10-13T03:40:17;36.17;;;18.02;;
11486;SDS011;10510;47.942;9.442;2022-10-13T03:42:17;44.25;;;20.55;;
11486;SDS011;10510;47.942;9.442;2022-10-13T03:44:18;37.00;;;20.48;;
11486;SDS011;10510;47.942;9.442;2022-10-13T03:46:18;36.55;;;20.17;;
11486;SDS011;10510;47.942;9.442;2022-10-13T03:48:19;40.20;;;19.52;;
11486;SDS011;10510;47.942;9.442;2022-10-13T03:50:20;38.97;;;19.70;;
11486;SDS011;10510;47.942;9.442;2022-10-13T03:52:20;44.25;;;20.05;;
11486;SDS011;10510;47.942;9.442;2022-10-13T03:54:21;39.83;;;20.90;;
11486;SDS011;10510;47.942;9.442;2022-10-13T03:56:22;43.53;;;19.73;;
11486;SDS011;10510;47.942;9.442;2022-10-13T03:58:24;48.25;;;21.15;;
11486;SDS011;10510;47.942;9.442;2022-10-13T04:00:27;38.65;;;19.23;;
11486;SDS011;10510;47.942;9.442;2022-10-13T04:02:27;43.17;;;22.15;;
11486;SDS011;10510;47.942;9.442;2022-10-13T04:04:27;42.22;;;20.40;;
11486;SDS011;10510;47.942;9.442;2022-10-13T04:06:28;34.47;;;19.70;;
11486;SDS011;10510;47.942;9.442;2022-10-13T04:08:30;38.55;;;19.05;;
11486;SDS011;10510;47.942;9.442;2022-10-13T04:10:32;43.78;;;19.38;;
11486;SDS011;10510;47.942;9.442;2022-10-13T04:12:32;39.45;;;19.27;;
11486;SDS011;10510;47.942;9.442;2022-10-13T04:14:32;45.15;;;20.23;;
11486;SDS011;10510;47.942;9.442;2022-10-13T04:16:33;45.05;;;20.23;;
11486;SDS011;10510;47.942;9.442;2022-10-13T04:18:33;42.92;;;19.80;;
11486;SDS011;10510;47.942;9.442;2022-10-13T04:20:35;38.30;;;19.35;;
11486;SDS011;10510;47.942;9.442;2022-10-13T04:22:37;34.17;;;18.55;;
11486;SDS011;10510;47.942;9.442;2022-10-13T04:24:37;39.00;;;18.92;;
11486;SDS011;10510;47.942;9.442;2022-10-13T04:26:38;45.33;;;20.42;;
11486;SDS011;10510;47.942;9.442;2022-10-13T04:28:38;43.17;;;20.13;;
11486;SDS011;10510;47.942;9.442;2022-10-13T04:30:39;42.25;;;20.33;;
11486;SDS011;10510;47.942;9.442;2022-10-13T04:32:39;36.90;;;20.38;;
11486;SDS011;10510;47.942;9.442;2022-10-13T04:34:39;37.67;;;19.60;;
11486;SDS011;10510;47.942;9.442;2022-10-13T04:36:40;35.92;;;17.70;;
11486;SDS011;10510;47.942;9.442;2022-10-13T04:38:41;46.92;;;20.25;;
11486;SDS011;10510;47.942;9.442;2022-10-13T04:40:42;39.55;;;19.50;;
11486;SDS011;10510;47.942;9.442;2022-10-13T04:42:43;42.03;;;18.52;;
11486;SDS011;10510;47.942;9.442;2022-10-13T04:44:43;39.95;;;19.30;;
11486;SDS011;10510;47.942;9.442;2022-10-13T04:46:43;38.20;;;18.42;;
11486;SDS011;10510;47.942;9.442;2022-10-13T04:48:44;45.70;;;19.90;;
11486;SDS011;10510;47.942;9.442;2022-10-13T04:50:45;40.15;;;19.38;;
11486;SDS011;10510;47.942;9.442;2022-10-13T04:52:45;38.55;;;18.90;;
11486;SDS011;10510;47.942;9.442;2022-10-13T04:54:45;42.03;;;19.02;;
11486;SDS011;10510;47.942;9.442;2022-10-13T04:56:46;43.10;;;21.77;;
11486;SDS011;10510;47.942;9.442;2022-10-13T04:58:46;33.75;;;19.33;;
11486;SDS011;10510;47.942;9.442;2022-10-13T05:00:46;39.45;;;19.73;;
11486;SDS011;10510;47.942;9.442;2022-10-13T05:02:47;40.38;;;20.00;;
11486;SDS011;10510;47.942;9.442;2022-10-13T05:04:47;34.38;;;18.50;;
11486;SDS011;10510;47.942;9.442;2022-10-13T05:06:47;42.95;;;19.83;;
11486;SDS011;10510;47.942;9.442;2022-10-13T05:08:48;35.10;;;17.58;;
11486;SDS011;10510;47.942;9.442;2022-10-13T05:10:59;45.45;;;19.90;;
11486;SDS011;10510;47.942;9.442;2022-10-13T05:13:00;38.05;;;19.02;;
11486;SDS011;10510;47.942;9.442;2022-10-13T05:15:00;40.80;;;19.00;;
11486;SDS011;10510;47.942;9.442;2022-10-13T05:17:01;38.00;;;17.85;;
11486;SDS011;10510;47.942;9.442;2022-10-13T05:19:01;41.08;;;20.25;;
11486;SDS011;10510;47.942;9.442;2022-10-13T05:21:08;36.67;;;18.08;;
11486;SDS011;10510;47.942;9.442;2022-10-13T05:23:10;40.25;;;18.05;;
11486;SDS011;10510;47.942;9.442;2022-10-13T05:25:10;39.78;;;17.58;;
11486;SDS011;10510;47.942;9.442;2022-10-13T05:27:11;40.88;;;18.65;;
11486;SDS011;10510;47.942;9.442;2022-10-13T05:29:12;38.35;;;18.65;;
11486;SDS011;10510;47.942;9.442;2022-10-13T05:31:16;38.45;;;18.38;;
11486;SDS011;10510;47.942;9.442;2022-10-13T05:33:18;39.28;;;17.80;;
11486;SDS011;10510;47.942;9.442;2022-10-13T05:35:18;37.50;;;20.27;;
11486;SDS011;10510;47.942;9.442;2022-10-13T05:37:19;36.30;;;18.70;;
11486;SDS011;10510;47.942;9.442;2022-10-13T05:39:21;38.30;;;18.23;;
11486;SDS011;10510;47.942;9.442;2022-10-13T05:41:22;38.95;;;18.77;;
11486;SDS011;10510;47.942;9.442;2022-10-13T05:43:23;40.85;;;19.52;;
11486;SDS011;10510;47.942;9.442;2022-10-13T05:45:23;38.42;;;17.92;;
11486;SDS011;10510;47.942;9.442;2022-10-13T05:47:26;35.08;;;18.02;;
11486;SDS011;10510;47.942;9.442;2022-10-13T05:49:27;40.42;;;20.63;;
11486;SDS011;10510;47.942;9.442;2022-10-13T05:51:34;46.78;;;19.17;;
11486;SDS011;10510;47.942;9.442;2022-10-13T05:53:50;37.10;;;18.98;;
11486;SDS011;10510;47.942;9.442;2022-10-13T05:55:53;39.30;;;18.95;;
11486;SDS011;10510;47.942;9.442;2022-10-13T05:57:57;40.63;;;18.50;;
11486;SDS011;10510;47.942;9.442;2022-10-13T06:02:08;36.30;;;18.25;;
11486;SDS011;10510;47.942;9.442;2022-10-13T06:04:17;36.33;;;17.92;;
11486;SDS011;10510;47.942;9.442;2022-10-13T06:06:21;37.90;;;19.25;;
11486;SDS011;10510;47.942;9.442;2022-10-13T06:08:22;38.80;;;17.70;;
11486;SDS011;10510;47.942;9.442;2022-10-13T06:10:23;36.22;;;18.95;;
11486;SDS011;10510;47.942;9.442;2022-10-13T06:12:24;46.25;;;21.10;;
11486;SDS011;10510;47.942;9.442;2022-10-13T06:14:24;41.78;;;19.45;;
11486;SDS011;10510;47.942;9.442;2022-10-13T06:16:25;40.50;;;20.30;;
11486;SDS011;10510;47.942;9.442;2022-10-13T06:18:25;33.97;;;18.20;;
11486;SDS011;10510;47.942;9.442;2022-10-13T06:20:25;34.47;;;16.90;;
11486;SDS011;10510;47.942;9.442;2022-10-13T06:22:26;35.60;;;18.05;;
11486;SDS011;10510;47.942;9.442;2022-10-13T06:24:26;36.75;;;18.10;;
11486;SDS011;10510;47.942;9.442;2022-10-13T06:26:27;42.42;;;18.77;;
11486;SDS011;10510;47.942;9.442;2022-10-13T06:28:27;38.45;;;18.15;;
11486;SDS011;10510;47.942;9.442;2022-10-13T06:30:27;36.88;;;18.23;;
11486;SDS011;10510;47.942;9.442;2022-10-13T06:32:28;32.17;;;16.33;;
11486;SDS011;10510;47.942;9.442;2022-10-13T06:34:28;32.03;;;18.33;;
11486;SDS011;10510;47.942;9.442;2022-10-13T06:36:28;31.17;;;16.67;;
11486;SDS011;10510;47.942;9.442;2022-10-13T06:38:29;35.80;;;17.27;;
11486;SDS011;10510;47.942;9.442;2022-10-13T06:40:29;37.75;;;17.85;;
11486;SDS011;10510;47.942;9.442;2022-10-13T06:42:30;31.52;;;16.27;;
11486;SDS011;10510;47.942;9.442;2022-10-13T06:44:32;30.42;;;16.23;;
11486;SDS011;10510;47.942;9.442;2022-10-13T06:46:33;30.90;;;15.40;;
11486;SDS011;10510;47.942;9.442;2022-10-13T06:48:33;36.90;;;16.95;;
11486;SDS011;10510;47.942;9.442;2022-10-13T06:50:34;30.80;;;16.10;;
11486;SDS011;10510;47.942;9.442;2022-10-13T06:52:34;29.58;;;15.70;;
11486;SDS011;10510;47.942;9.442;2022-10-13T06:54:34;30.30;;;15.25;;
11486;SDS011;10510;47.942;9.442;2022-10-13T06:56:34;33.25;;;15.55;;
11486;SDS011;10510;47.942;9.442;2022-10-13T06:58:35;34.60;;;15.48;;
11486;SDS011;10510;47.942;9.442;2022-10-13T07:00:36;30.35;;;14.77;;
11486;SDS011;10510;47.942;9.442;2022-10-13T07:02:39;28.67;;;15.88;;
11486;SDS011;10510;47.942;9.442;2022-10-13T07:04:40;43.78;;;17.15;;
11486;SDS011;10510;47.942;9.442;2022-10-13T07:06:40;32.42;;;15.35;;
11486;SDS011;10510;47.942;9.442;2022-10-13T07:08:40;36.25;;;17.02;;
11486;SDS011;10510;47.942;9.442;2022-10-13T07:10:41;31.17;;;14.52;;
11486;SDS011;10510;47.942;9.442;2022-10-13T07:12:42;31.20;;;14.57;;
11486;SDS011;10510;47.942;9.442;2022-10-13T07:14:42;37.03;;;15.52;;
11486;SDS011;10510;47.942;9.442;2022-10-13T07:16:42;34.13;;;15.77;;
11486;SDS011;10510;47.942;9.442;2022-10-13T07:18:42;29.85;;;15.13;;
11486;SDS011;10510;47.942;9.442;2022-10-13T07:20:43;32.35;;;17.27;;
11486;SDS011;10510;47.942;9.442;2022-10-13T07:22:43;32.15;;;16.10;;
11486;SDS011;10510;47.942;9.442;2022-10-13T07:24:44;36.28;;;16.60;;
11486;SDS011;10510;47.942;9.442;2022-10-13T07:26:44;33.95;;;15.95;;
11486;SDS011;10510;47.942;9.442;2022-10-13T07:28:45;33.95;;;16.60;;
11486;SDS011;10510;47.942;9.442;2022-10-13T07:30:45;36.50;;;15.98;;
11486;SDS011;10510;47.942;9.442;2022-10-13T07:32:45;35.10;;;15.38;;
11486;SDS011;10510;47.942;9.442;2022-10-13T07:34:46;34.78;;;16.65;;
11486;SDS011;10510;47.942;9.442;2022-10-13T07:36:47;36.03;;;15.45;;
11486;SDS011;10510;47.942;9.442;2022-10-13T07:38:47;30.70;;;15.80;;
11486;SDS011;10510;47.942;9.442;2022-10-13T07:40:47;36.17;;;16.17;;
11486;SDS011;10510;47.942;9.442;2022-10-13T07:42:48;28.85;;;15.63;;
11486;SDS011;10510;47.942;9.442;2022-10-13T07:44:48;28.05;;;16.00;;
11486;SDS011;10510;47.942;9.442;2022-10-13T07:46:48;36.78;;;16.58;;
11486;SDS011;10510;47.942;9.442;2022-10-13T07:48:48;34.13;;;15.52;;
11486;SDS011;10510;47.942;9.442;2022-10-13T07:50:50;35.05;;;15.50;;
11486;SDS011;10510;47.942;9.442;2022-10-13T07:52:50;29.63;;;15.02;;
11486;SDS011;10510;47.942;9.442;2022-10-13T07:54:51;32.67;;;15.75;;
11486;SDS011;10510;47.942;9.442;2022-10-13T07:56:51;29.02;;;16.08;;
11486;SDS011;10510;47.942;9.442;2022-10-13T07:58:52;28.45;;;15.18;;
11486;SDS011;10510;47.942;9.442;2022-10-13T08:00:56;32.92;;;14.68;;
11486;SDS011;10510;47.942;9.442;2022-10-13T08:02:57;26.98;;;14.95;;
11486;SDS011;10510;47.942;9.442;2022-10-13T08:04:58;34.83;;;14.48;;
11486;SDS011;10510;47.942;9.442;2022-10-13T08:06:58;29.10;;;14.73;;
11486;SDS011;10510;47.942;9.442;2022-10-13T08:08:58;26.88;;;15.10;;
11486;SDS011;10510;47.942;9.442;2022-10-13T08:11:00;30.85;;;15.18;;
11486;SDS011;10510;47.942;9.442;2022-10-13T08:13:02;29.25;;;15.45;;
11486;SDS011;10510;47.942;9.442;2022-10-13T08:15:03;25.08;;;14.80;;
11486;SDS011;10510;47.942;9.442;2022-10-13T08:17:04;33.95;;;16.20;;
11486;SDS011;10510;47.942;9.442;2022-10-13T08:19:05;26.33;;;14.82;;
11486;SDS011;10510;47.942;9.442;2022-10-13T08:21:05;28.52;;;15.25;;
11486;SDS011;10510;47.942;9.442;2022-10-13T08:23:05;30.33;;;15.15;;
11486;SDS011;10510;47.942;9.442;2022-10-13T08:25:06;30.23;;;14.07;;
11486;SDS011;10510;47.942;9.442;2022-10-13T08:27:08;24.80;;;13.13;;
11486;SDS011;10510;47.942;9.442;2022-10-13T08:29:19;27.55;;;12.30;;
11486;SDS011;10510;47.942;9.442;2022-10-13T08:31:19;25.35;;;12.85;;
11486;SDS011;10510;47.942;9.442;2022-10-13T08:33:20;21.75;;;13.75;;
11486;SDS011;10510;47.942;9.442;2022-10-13T08:35:20;29.05;;;14.32;;
11486;SDS011;10510;47.942;9.442;2022-10-13T08:37:20;26.13;;;13.02;;
11486;SDS011;10510;47.942;9.442;2022-10-13T08:39:21;26.40;;;13.60;;
11486;SDS011;10510;47.942;9.442;2022-10-13T08:41:23;24.30;;;13.02;;
11486;SDS011;10510;47.942;9.442;2022-10-13T08:43:26;24.35;;;14.38;;
11486;SDS011;10510;47.942;9.442;2022-10-13T08:45:27;29.83;;;12.88;;
11486;SDS011;10510;47.942;9.442;2022-10-13T08:49:36;25.42;;;12.88;;
11486;SDS011;10510;47.942;9.442;2022-10-13T08:51:36;26.25;;;13.77;;
11486;SDS011;10510;47.942;9.442;2022-10-13T08:53:40;24.08;;;13.63;;
11486;SDS011;10510;47.942;9.442;2022-10-13T08:55:43;28.25;;;13.43;;
11486;SDS011;10510;47.942;9.442;2022-10-13T08:57:48;31.00;;;14.70;;
11486;SDS011;10510;47.942;9.442;2022-10-13T08:59:48;28.13;;;14.05;;
11486;SDS011;10510;47.942;9.442;2022-10-13T09:01:51;25.88;;;14.35;;
11486;SDS011;10510;47.942;9.442;2022-10-13T09:08:40;28.42;;;14.43;;
11486;SDS011;10510;47.942;9.442;2022-10-13T09:10:45;29.10;;;13.65;;
11486;SDS011;10510;47.942;9.442;2022-10-13T09:12:49;21.77;;;14.00;;
11486;SDS011;10510;47.942;9.442;2022-10-13T09:15:04;23.30;;;13.48;;
11486;SDS011;10510;47.942;9.442;2022-10-13T09:17:26;22.67;;;13.20;;
11486;SDS011;10510;47.942;9.442;2022-10-13T09:19:32;28.65;;;13.15;;
11486;SDS011;10510;47.942;9.442;2022-10-13T09:21:35;22.25;;;13.02;;
11486;SDS011;10510;47.942;9.442;2022-10-13T09:23:35;21.67;;;13.40;;
11486;SDS011;10510;47.942;9.442;2022-10-13T09:25:40;21.27;;;12.48;;
11486;SDS011;10510;47.942;9.442;2022-10-13T09:29:53;21.98;;;12.60;;
11486;SDS011;10510;47.942;9.442;2022-10-13T09:32:06;21.20;;;12.65;;
11486;SDS011;10510;47.942;9.442;2022-10-13T09:34:27;21.58;;;12.68;;
11486;SDS011;10510;47.942;9.442;2022-10-13T09:36:29;21.50;;;12.45;;
11486;SDS011;10510;47.942;9.442;2022-10-13T09:38:30;22.67;;;13.07;;
11486;SDS011;10510;47.942;9.442;2022-10-13T09:40:31;32.28;;;13.57;;
11486;SDS011;10510;47.942;9.442;2022-10-13T09:42:32;30.42;;;14.30;;
11486;SDS011;10510;47.942;9.442;2022-10-13T09:44:33;27.83;;;14.93;;
11486;SDS011;10510;47.942;9.442;2022-10-13T09:46:46;27.70;;;14.77;;
11486;SDS011;10510;47.942;9.442;2022-10-13T09:48:54;29.52;;;15.27;;
11486;SDS011;10510;47.942;9.442;2022-10-13T09:50:56;27.58;;;14.70;;
11486;SDS011;10510;47.942;9.442;2022-10-13T09:55:35;33.67;;;17.10;;
11486;SDS011;10510;47.942;9.442;2022-10-13T09:57:42;24.00;;;14.30;;
11486;SDS011;10510;47.942;9.442;2022-10-13T09:59:50;31.25;;;16.63;;
11486;SDS011;10510;47.942;9.442;2022-10-13T10:01:53;28.77;;;15.75;;
11486;SDS011;10510;47.942;9.442;2022-10-13T10:03:56;31.42;;;15.60;;
11486;SDS011;10510;47.942;9.442;2022-10-13T10:05:58;29.67;;;15.70;;
11486;SDS011;10510;47.942;9.442;2022-10-13T10:08:03;35.72;;;15.88;;
11486;SDS011;10510;47.942;9.442;2022-10-13T10:12:36;29.55;;;14.57;;
11486;SDS011;10510;47.942;9.442;2022-10-13T10:14:40;35.28;;;16.33;;
11486;SDS011;10510;47.942;9.442;2022-10-13T10:16:45;42.42;;;17.50;;
11486;SDS011;10510;47.942;9.442;2022-10-13T10:19:11;27.90;;;15.93;;
11486;SDS011;10510;47.942;9.442;2022-10-13T10:23:48;29.50;;;16.13;;
11486;SDS011;10510;47.942;9.442;2022-10-13T10:25:54;42.92;;;16.02;;
11486;SDS011;10510;47.942;9.442;2022-10-13T10:30:35;35.95;;;17.38;;
11486;SDS011;10510;47.942;9.442;2022-10-13T10:34:56;29.85;;;16.65;;
11486;SDS011;10510;47.942;9.442;2022-10-13T10:41:49;28.25;;;14.85;;
11486;SDS011;10510;47.942;9.442;2022-10-13T10:43:55;34.05;;;16.85;;
11486;SDS011;10510;47.942;9.442;2022-10-13T10:46:02;51.22;;;16.42;;
11486;SDS011;10510;47.942;9.442;2022-10-13T10:48:18;34.80;;;17.23;;
11486;SDS011;10510;47.942;9.442;2022-10-13T10:50:21;30.17;;;16.27;;
11486;SDS011;10510;47.942;9.442;2022-10-13T10:52:23;33.42;;;16.00;;
11486;SDS011;10510;47.942;9.442;2022-10-13T10:54:45;36.08;;;16.38;;
11486;SDS011;10510;47.942;9.442;2022-10-13T10:57:19;34.50;;;15.55;;
11486;SDS011;10510;47.942;9.442;2022-10-13T11:06:33;25.65;;;14.48;;
11486;SDS011;10510;47.942;9.442;2022-10-13T11:10:39;31.83;;;14.82;;
11486;SDS011;10510;47.942;9.442;2022-10-13T11:12:47;29.05;;;16.15;;
11486;SDS011;10510;47.942;9.442;2022-10-13T11:19:01;31.33;;;15.77;;
11486;SDS011;10510;47.942;9.442;2022-10-13T11:21:07;32.60;;;16.63;;
11486;SDS011;10510;47.942;9.442;2022-10-13T11:27:45;29.40;;;14.63;;
11486;SDS011;10510;47.942;9.442;2022-10-13T11:31:47;26.27;;;14.70;;
11486;SDS011;10510;47.942;9.442;2022-10-13T11:33:52;26.00;;;14.65;;
11486;SDS011;10510;47.942;9.442;2022-10-13T11:35:54;40.55;;;16.35;;
11486;SDS011;10510;47.942;9.442;2022-10-13T11:40:10;30.77;;;16.00;;
11486;SDS011;10510;47.942;9.442;2022-10-13T11:44:52;33.90;;;15.38;;
11486;SDS011;10510;47.942;9.442;2022-10-13T11:47:10;46.08;;;15.45;;
11486;SDS011;10510;47.942;9.442;2022-10-13T11:49:48;30.05;;;14.05;;
11486;SDS011;10510;47.942;9.442;2022-10-13T11:54:40;22.42;;;14.40;;
11486;SDS011;10510;47.942;9.442;2022-10-13T11:56:50;29.58;;;14.80;;
11486;SDS011;10510;47.942;9.442;2022-10-13T11:58:54;22.55;;;13.52;;
11486;SDS011;10510;47.942;9.442;2022-10-13T12:00:58;27.33;;;14.48;;
11486;SDS011;10510;47.942;9.442;2022-10-13T12:03:01;25.60;;;14.07;;
11486;SDS011;10510;47.942;9.442;2022-10-13T12:05:04;26.95;;;13.90;;
11486;SDS011;10510;47.942;9.442;2022-10-13T12:07:24;30.10;;;14.27;;
11486;SDS011;10510;47.942;9.442;2022-10-13T12:09:32;24.92;;;12.88;;
11486;SDS011;10510;47.942;9.442;2022-10-13T12:11:38;25.38;;;13.95;;
11486;SDS011;10510;47.942;9.442;2022-10-13T12:13:38;21.30;;;12.52;;
11486;SDS011;10510;47.942;9.442;2022-10-13T12:15:45;28.60;;;13.77;;
11486;SDS011;10510;47.942;9.442;2022-10-13T12:17:45;27.45;;;13.82;;
11486;SDS011;10510;47.942;9.442;2022-10-13T12:19:46;23.88;;;12.63;;
11486;SDS011;10510;47.942;9.442;2022-10-13T12:21:47;28.10;;;13.68;;
11486;SDS011;10510;47.942;9.442;2022-10-13T12:23:50;26.48;;;13.30;;
11486;SDS011;10510;47.942;9.442;2022-10-13T12:25:51;24.85;;;15.55;;
11486;SDS011;10510;47.942;9.442;2022-10-13T12:27:57;26.58;;;15.10;;
11486;SDS011;10510;47.942;9.442;2022-10-13T12:29:59;24.90;;;14.00;;
11486;SDS011;10510;47.942;9.442;2022-10-13T12:32:01;24.48;;;13.57;;
11486;SDS011;10510;47.942;9.442;2022-10-13T12:34:01;32.45;;;13.43;;
11486;SDS011;10510;47.942;9.442;2022-10-13T12:36:12;24.40;;;13.43;;
11486;SDS011;10510;47.942;9.442;2022-10-13T12:38:17;31.52;;;14.00;;
11486;SDS011;10510;47.942;9.442;2022-10-13T12:40:19;25.75;;;13.23;;
11486;SDS011;10510;47.942;9.442;2022-10-13T12:42:22;30.58;;;14.20;;
11486;SDS011;10510;47.942;9.442;2022-10-13T12:44:26;29.70;;;13.82;;
11486;SDS011;10510;47.942;9.442;2022-10-13T12:46:48;24.98;;;12.02;;
11486;SDS011;10510;47.942;9.442;2022-10-13T12:48:51;22.63;;;12.55;;
11486;SDS011;10510;47.942;9.442;2022-10-13T12:50:51;20.80;;;12.07;;
11486;SDS011;10510;47.942;9.442;2022-10-13T12:52:52;23.55;;;12.20;;
11486;SDS011;10510;47.942;9.442;2022-10-13T12:54:55;29.58;;;12.45;;
11486;SDS011;10510;47.942;9.442;2022-10-13T12:56:57;21.20;;;11.52;;
11486;SDS011;10510;47.942;9.442;2022-10-13T12:58:59;23.60;;;11.85;;
11486;SDS011;10510;47.942;9.442;2022-10-13T13:05:37;21.88;;;11.13;;
11486;SDS011;10510;47.942;9.442;2022-10-13T13:07:39;29.95;;;11.18;;
11486;SDS011;10510;47.942;9.442;2022-10-13T13:09:39;19.35;;;10.57;;
11486;SDS011;10510;47.942;9.442;2022-10-13T13:11:40;22.23;;;10.88;;
11486;SDS011;10510;47.942;9.442;2022-10-13T13:13:40;23.73;;;10.85;;
11486;SDS011;10510;47.942;9.442;2022-10-13T13:15:40;18.58;;;9.70;;
11486;SDS011;10510;47.942;9.442;2022-10-13T13:17:40;23.55;;;10.95;;